createdAt,value
2019-02-28T00:01:21.564Z,2.43
2019-02-28T00:03:49.085Z,2.90
2019-02-28T00:06:16.382Z,12.87
2019-02-28T00:08:43.736Z,11.00
2019-02-28T00:11:11.056Z,12.23
2019-02-28T00:13:38.379Z,14.97
2019-02-28T00:16:06.440Z,3.40
2019-02-28T00:18:33.527Z,3.63
2019-02-28T00:21:06.073Z,2.17
2019-02-28T00:23:29.800Z,2.90
2019-02-28T00:25:57.948Z,1.90
2019-02-28T00:28:26.610Z,2.80
2019-02-28T00:30:55.315Z,1.83
2019-02-28T00:33:23.839Z,1.97
2019-02-28T00:35:52.629Z,2.53
2019-02-28T00:38:20.468Z,1.50
2019-02-28T00:40:48.680Z,2.17
2019-02-28T00:43:17.836Z,2.20
2019-02-28T00:45:45.399Z,2.50
2019-02-28T00:48:14.735Z,2.60
2019-02-28T00:50:41.911Z,3.57
2019-02-28T00:53:09.039Z,2.57
2019-02-28T00:55:36.247Z,3.37
2019-02-28T00:58:03.362Z,2.47
2019-02-28T01:00:31.539Z,2.37
2019-02-28T01:02:59.004Z,3.10
2019-02-28T01:05:26.559Z,5.67
2019-02-28T01:07:54.311Z,9.23
2019-02-28T01:10:22.851Z,9.73
2019-02-28T01:12:53.054Z,19.70
2019-02-28T01:15:20.095Z,19.87
2019-02-28T01:17:47.088Z,5.20
2019-02-28T01:20:16.584Z,2.80
2019-02-28T01:22:46.087Z,2.83
2019-02-28T01:25:13.459Z,4.27
2019-02-28T01:27:41.918Z,2.67
2019-02-28T01:30:10.412Z,2.93
2019-02-28T01:32:38.472Z,3.40
2019-02-28T01:35:06.975Z,3.70
2019-02-28T01:37:34.517Z,4.97
2019-02-28T01:40:04.329Z,3.53
2019-02-28T01:42:32.004Z,4.37
2019-02-28T01:44:59.775Z,1.80
2019-02-28T01:47:26.951Z,2.03
2019-02-28T01:49:57.764Z,4.03
2019-02-28T01:52:26.492Z,3.40
2019-02-28T01:54:54.975Z,5.70
2019-02-28T01:57:22.641Z,3.80
2019-02-28T01:59:52.865Z,3.97
2019-02-28T02:02:20.336Z,3.53
2019-02-28T02:04:48.320Z,3.50
2019-02-28T02:07:15.782Z,11.20
2019-02-28T02:09:46.154Z,4.87
2019-02-28T02:12:11.888Z,5.17
2019-02-28T02:14:44.644Z,3.37
2019-02-28T02:17:09.972Z,4.03
2019-02-28T02:19:37.327Z,7.47
2019-02-28T02:22:09.164Z,3.90
2019-02-28T02:24:36.127Z,5.10
2019-02-28T02:27:05.185Z,3.73
2019-02-28T02:29:36.444Z,3.93
2019-02-28T02:32:02.743Z,9.70
2019-02-28T02:34:31.971Z,4.83
2019-02-28T02:36:58.893Z,8.73
2019-02-28T02:39:26.305Z,4.60
2019-02-28T02:41:53.200Z,5.20
2019-02-28T02:44:20.764Z,4.53
2019-02-28T02:46:48.192Z,8.50
2019-02-28T02:49:19.890Z,7.30
2019-02-28T02:51:49.041Z,5.83
2019-02-28T02:54:17.943Z,6.00
2019-02-28T02:56:42.402Z,6.40
2019-02-28T02:59:10.010Z,8.70
2019-02-28T03:01:37.840Z,8.27
2019-02-28T03:04:05.468Z,5.40
2019-02-28T03:06:32.765Z,9.67
2019-02-28T03:08:59.984Z,6.27
2019-02-28T03:11:29.177Z,6.90
2019-02-28T03:13:56.776Z,7.07
2019-02-28T03:16:23.900Z,8.00
2019-02-28T03:18:56.667Z,7.03
2019-02-28T03:21:20.364Z,18.43
2019-02-28T03:23:48.937Z,16.03
2019-02-28T03:26:16.361Z,9.50
2019-02-28T03:28:43.387Z,12.23
2019-02-28T03:31:14.478Z,9.83
2019-02-28T03:33:40.511Z,8.17
2019-02-28T03:36:07.926Z,8.47
2019-02-28T03:38:35.196Z,8.80
2019-02-28T03:41:03.148Z,10.43
2019-02-28T03:43:31.056Z,7.63
2019-02-28T03:45:59.261Z,9.37
2019-02-28T03:48:26.722Z,11.60
2019-02-28T03:50:56.506Z,9.37
2019-02-28T03:53:26.027Z,10.20
2019-02-28T03:55:52.900Z,7.63
2019-02-28T03:58:21.491Z,6.00
2019-02-28T04:00:48.685Z,8.53
2019-02-28T04:03:17.013Z,10.50
2019-02-28T04:05:44.584Z,7.93
2019-02-28T04:08:13.063Z,8.80
2019-02-28T04:10:40.893Z,8.20
2019-02-28T04:13:09.388Z,12.17
2019-02-28T04:15:37.436Z,11.10
2019-02-28T04:18:07.473Z,8.53
2019-02-28T04:20:37.570Z,10.90
2019-02-28T04:23:03.548Z,9.47
2019-02-28T04:25:30.496Z,10.60
2019-02-28T04:27:58.444Z,9.20
2019-02-28T04:30:25.577Z,9.00
2019-02-28T04:32:52.557Z,7.30
2019-02-28T04:35:23.933Z,9.30
2019-02-28T04:37:50.197Z,12.90
2019-02-28T04:40:17.543Z,11.87
2019-02-28T04:42:45.364Z,10.40
2019-02-28T04:45:13.401Z,9.27
2019-02-28T04:47:41.432Z,9.33
2019-02-28T04:50:10.540Z,18.00
2019-02-28T04:52:39.320Z,9.63
2019-02-28T04:55:06.727Z,9.17
2019-02-28T04:57:34.292Z,10.37
2019-02-28T05:00:01.324Z,13.70
2019-02-28T05:02:28.520Z,13.10
2019-02-28T05:04:55.582Z,14.33
2019-02-28T05:07:22.927Z,10.70
2019-02-28T05:09:52.144Z,12.60
2019-02-28T05:12:19.287Z,12.33
2019-02-28T05:14:46.391Z,11.87
2019-02-28T05:17:13.803Z,12.73
2019-02-28T05:19:40.831Z,9.40
2019-02-28T05:22:08.243Z,19.13
2019-02-28T05:24:35.223Z,10.00
2019-02-28T05:27:02.114Z,12.07
2019-02-28T05:29:29.460Z,8.83
2019-02-28T05:31:58.070Z,14.53
2019-02-28T05:34:25.803Z,19.20
2019-02-28T05:36:53.841Z,17.43
2019-02-28T05:39:22.753Z,14.73
2019-02-28T05:41:50.151Z,16.73
2019-02-28T05:44:18.326Z,19.13
2019-02-28T05:46:45.747Z,15.33
2019-02-28T05:49:12.691Z,23.90
2019-02-28T05:51:41.955Z,19.10
2019-02-28T05:54:09.580Z,27.30
2019-02-28T05:56:37.027Z,28.60
2019-02-28T05:59:04.937Z,30.17
2019-02-28T06:01:33.027Z,29.73
2019-02-28T06:04:03.302Z,36.03
2019-02-28T06:06:29.955Z,36.10
2019-02-28T06:08:58.736Z,40.80
2019-02-28T06:11:25.744Z,40.53
2019-02-28T06:13:54.428Z,26.17
2019-02-28T06:16:22.208Z,32.87
2019-02-28T06:18:49.607Z,32.30
2019-02-28T06:21:17.101Z,34.57
2019-02-28T06:23:44.260Z,28.40
2019-02-28T06:26:11.631Z,29.00
2019-02-28T06:28:41.073Z,25.43
2019-02-28T06:31:09.984Z,21.50
2019-02-28T06:33:37.394Z,23.37
2019-02-28T06:36:06.316Z,23.17
2019-02-28T06:38:33.424Z,23.03
2019-02-28T06:41:04.321Z,24.30
2019-02-28T06:43:31.125Z,22.47
2019-02-28T06:45:58.616Z,15.50
2019-02-28T06:48:26.735Z,20.50
2019-02-28T06:50:54.583Z,22.83
2019-02-28T06:53:21.744Z,19.03
2019-02-28T06:55:48.765Z,23.03
2019-02-28T06:58:18.074Z,20.13
2019-02-28T07:00:47.411Z,19.60
2019-02-28T07:03:14.628Z,19.57
2019-02-28T07:05:43.675Z,25.90
2019-02-28T07:08:11.297Z,24.57
2019-02-28T07:10:41.462Z,20.97
2019-02-28T07:13:08.215Z,21.07
2019-02-28T07:15:36.729Z,21.07
2019-02-28T07:18:04.188Z,21.17
2019-02-28T07:20:31.204Z,17.63
2019-02-28T07:22:59.952Z,21.23
2019-02-28T07:25:27.271Z,17.83
2019-02-28T07:27:54.942Z,20.60
2019-02-28T07:30:22.945Z,18.80
2019-02-28T07:32:49.947Z,20.10
2019-02-28T07:35:18.887Z,24.80
2019-02-28T07:37:46.641Z,16.63
2019-02-28T07:40:16.277Z,21.50
2019-02-28T07:42:43.223Z,14.33
2019-02-28T07:45:12.143Z,21.20
2019-02-28T07:47:39.620Z,16.10
2019-02-28T07:50:07.720Z,21.70
2019-02-28T07:52:37.493Z,17.03
2019-02-28T07:55:05.662Z,20.90
2019-02-28T07:57:33.379Z,15.20
2019-02-28T08:00:01.236Z,14.57
2019-02-28T08:02:28.961Z,14.43
2019-02-28T08:04:55.953Z,13.30
2019-02-28T08:07:24.104Z,15.80
2019-02-28T08:09:51.459Z,17.33
2019-02-28T08:12:18.683Z,24.37
2019-02-28T08:14:47.131Z,20.00
2019-02-28T08:17:16.416Z,18.13
2019-02-28T08:19:43.831Z,15.13
2019-02-28T08:22:11.651Z,16.47
2019-02-28T08:24:38.716Z,18.83
2019-02-28T08:27:05.826Z,20.00
2019-02-28T08:29:34.659Z,17.60
2019-02-28T08:32:08.019Z,18.77
2019-02-28T08:34:33.042Z,14.83
2019-02-28T08:37:00.145Z,14.43
2019-02-28T08:39:28.835Z,18.57
2019-02-28T08:42:02.844Z,18.77
2019-02-28T08:44:24.868Z,23.63
2019-02-28T08:46:52.408Z,19.37
2019-02-28T08:49:19.442Z,24.13
2019-02-28T08:51:46.997Z,19.90
2019-02-28T08:54:14.808Z,18.07
2019-02-28T08:56:41.683Z,27.97
2019-02-28T08:59:12.006Z,30.03
2019-02-28T09:01:41.253Z,26.00
2019-02-28T09:04:09.060Z,26.93
2019-02-28T09:06:37.824Z,29.47
2019-02-28T09:09:09.149Z,26.47
2019-02-28T09:11:36.715Z,25.83
2019-02-28T09:14:03.837Z,23.77
2019-02-28T09:16:31.205Z,24.30
2019-02-28T09:19:00.935Z,24.80
2019-02-28T09:21:29.161Z,25.93
2019-02-28T09:23:56.235Z,24.80
2019-02-28T09:26:23.476Z,29.97
2019-02-28T09:28:51.044Z,25.17
2019-02-28T09:31:18.091Z,27.90
2019-02-28T09:33:45.213Z,26.50
2019-02-28T09:36:12.372Z,27.40
2019-02-28T09:38:42.349Z,33.33
2019-02-28T09:41:09.535Z,27.17
2019-02-28T09:43:37.538Z,27.63
2019-02-28T09:46:04.664Z,29.50
2019-02-28T09:48:34.002Z,26.47
2019-02-28T09:51:03.152Z,24.40
2019-02-28T09:53:31.251Z,35.10
2019-02-28T09:55:58.683Z,25.47
2019-02-28T09:58:26.257Z,30.80
2019-02-28T10:00:54.892Z,24.47
2019-02-28T10:03:22.836Z,26.03
2019-02-28T10:05:50.280Z,29.60
2019-02-28T10:08:17.290Z,23.60
2019-02-28T10:10:44.412Z,32.93
2019-02-28T10:13:14.474Z,24.43
2019-02-28T10:15:41.715Z,27.60
2019-02-28T10:18:10.761Z,22.83
2019-02-28T10:20:37.931Z,27.13
2019-02-28T10:23:05.092Z,27.70
2019-02-28T10:25:32.615Z,33.23
2019-02-28T10:28:02.797Z,29.47
2019-02-28T10:30:32.081Z,32.07
2019-02-28T10:32:59.507Z,31.57
2019-02-28T10:35:27.283Z,31.63
2019-02-28T10:37:58.520Z,29.83
2019-02-28T10:40:23.867Z,34.77
2019-02-28T10:42:51.191Z,38.50
2019-02-28T10:45:19.021Z,30.80
2019-02-28T10:47:46.603Z,29.30
2019-02-28T10:50:17.582Z,27.50
2019-02-28T10:52:46.083Z,40.90
2019-02-28T10:55:15.615Z,33.03
2019-02-28T10:57:45.043Z,30.97
2019-02-28T11:00:15.351Z,37.20
2019-02-28T11:02:44.274Z,31.97
2019-02-28T11:05:18.831Z,33.43
2019-02-28T11:07:48.145Z,30.97
2019-02-28T11:10:16.140Z,34.53
2019-02-28T11:12:43.479Z,32.37
2019-02-28T11:15:13.860Z,35.23
2019-02-28T11:17:41.738Z,38.83
2019-02-28T11:20:09.983Z,38.23
2019-02-28T11:22:39.900Z,32.70
2019-02-28T11:25:09.667Z,36.23
2019-02-28T11:27:38.896Z,35.70
2019-02-28T11:30:10.141Z,32.83
2019-02-28T11:32:39.311Z,37.50
2019-02-28T11:35:06.951Z,37.93
2019-02-28T11:37:34.871Z,38.73
2019-02-28T11:40:02.106Z,37.23
2019-02-28T11:42:31.178Z,40.83
2019-02-28T11:44:58.396Z,37.53
2019-02-28T11:47:25.846Z,38.13
2019-02-28T11:49:54.479Z,42.07
2019-02-28T11:52:21.416Z,37.40
2019-02-28T11:54:48.939Z,34.77
2019-02-28T11:57:16.183Z,44.23
2019-02-28T11:59:43.376Z,36.40
2019-02-28T12:02:11.795Z,39.80
2019-02-28T12:04:40.491Z,33.10
2019-02-28T12:07:07.868Z,35.60
2019-02-28T12:09:34.996Z,37.63
2019-02-28T12:12:02.412Z,36.30
2019-02-28T12:14:30.228Z,39.00
2019-02-28T12:16:58.084Z,35.87
2019-02-28T12:19:25.063Z,35.23
2019-02-28T12:21:53.106Z,36.43
2019-02-28T12:24:21.376Z,32.13
2019-02-28T12:26:52.534Z,28.97
2019-02-28T12:29:19.568Z,36.47
2019-02-28T12:31:46.587Z,39.20
2019-02-28T12:34:15.145Z,34.10
2019-02-28T12:36:42.367Z,31.07
2019-02-28T12:39:10.317Z,32.30
2019-02-28T12:41:37.530Z,34.33
2019-02-28T12:44:04.807Z,37.20
2019-02-28T12:46:32.725Z,34.83
2019-02-28T12:49:00.055Z,27.67
2019-02-28T12:51:27.876Z,31.73
2019-02-28T12:53:56.209Z,30.63
2019-02-28T12:56:25.543Z,19.70
2019-02-28T12:58:53.003Z,34.17
2019-02-28T13:01:20.605Z,31.40
2019-02-28T13:03:54.673Z,31.60
2019-02-28T13:06:23.406Z,32.80
2019-02-28T13:08:48.676Z,30.53
2019-02-28T13:11:16.999Z,31.30
2019-02-28T13:13:44.195Z,31.50
2019-02-28T13:16:13.228Z,35.37
2019-02-28T13:18:43.611Z,33.00
2019-02-28T13:21:10.489Z,39.73
2019-02-28T13:23:39.523Z,27.70
2019-02-28T13:26:07.087Z,31.80
2019-02-28T13:28:35.063Z,34.70
2019-02-28T13:31:02.228Z,22.53
2019-02-28T13:33:30.349Z,28.13
2019-02-28T13:35:59.779Z,19.23
2019-02-28T13:38:27.307Z,33.23
2019-02-28T13:40:55.361Z,19.90
2019-02-28T13:43:22.911Z,22.87
2019-02-28T13:45:55.853Z,21.03
2019-02-28T13:48:26.051Z,17.10
2019-02-28T13:50:49.220Z,19.70
2019-02-28T13:53:17.766Z,19.90
2019-02-28T13:55:46.497Z,17.13
2019-02-28T13:58:17.683Z,22.47
2019-02-28T14:00:45.866Z,16.73
2019-02-28T14:03:12.954Z,17.23
2019-02-28T14:05:41.693Z,19.90
2019-02-28T14:08:11.309Z,18.97
2019-02-28T14:10:38.451Z,20.23
2019-02-28T14:13:06.626Z,24.97
2019-02-28T14:15:38.248Z,22.37
2019-02-28T14:18:07.542Z,33.30
2019-02-28T14:20:34.736Z,26.47
2019-02-28T14:23:01.868Z,16.33
2019-02-28T14:25:28.868Z,25.80
2019-02-28T14:28:00.242Z,18.40
2019-02-28T14:30:27.043Z,21.50
2019-02-28T14:32:54.132Z,19.67
2019-02-28T14:35:23.073Z,19.43
2019-02-28T14:37:55.483Z,21.03
2019-02-28T14:40:21.092Z,27.20
2019-02-28T14:42:49.311Z,30.10
2019-02-28T14:45:16.551Z,25.70
2019-02-28T14:47:44.552Z,27.90
2019-02-28T14:50:15.520Z,26.50
2019-02-28T14:52:43.052Z,26.03
2019-02-28T14:55:12.148Z,25.47
2019-02-28T14:57:39.155Z,19.67
2019-02-28T15:00:10.025Z,20.03
2019-02-28T15:02:37.251Z,29.47
2019-02-28T15:05:05.244Z,31.20
2019-02-28T15:07:35.263Z,28.33
2019-02-28T15:10:04.751Z,34.83
2019-02-28T15:12:32.118Z,30.30
2019-02-28T15:15:01.001Z,29.30
2019-02-28T15:17:30.039Z,27.00
2019-02-28T15:19:58.079Z,29.40
2019-02-28T15:22:25.964Z,46.53
2019-02-28T15:24:54.311Z,32.60
2019-02-28T15:27:21.532Z,31.40
2019-02-28T15:29:49.464Z,36.10
2019-02-28T15:32:17.197Z,31.63
2019-02-28T15:34:45.628Z,34.97
2019-02-28T15:37:12.644Z,31.23
2019-02-28T15:39:39.956Z,33.60
2019-02-28T15:42:08.183Z,26.50
2019-02-28T15:44:36.208Z,37.50
2019-02-28T15:47:03.796Z,24.43
2019-02-28T15:49:32.075Z,31.33
2019-02-28T15:52:01.776Z,35.97
2019-02-28T15:54:30.160Z,34.83
2019-02-28T15:56:57.271Z,37.47
2019-02-28T15:59:26.217Z,33.53
2019-02-28T16:01:54.263Z,36.97
2019-02-28T16:04:23.453Z,38.50
2019-02-28T16:06:56.577Z,32.10
2019-02-28T16:09:21.475Z,37.03
2019-02-28T16:11:48.120Z,37.53
2019-02-28T16:14:15.656Z,33.43
2019-02-28T16:16:43.087Z,42.00
2019-02-28T16:19:12.812Z,36.20
2019-02-28T16:21:41.666Z,35.83
2019-02-28T16:24:08.864Z,37.20
2019-02-28T16:26:37.425Z,41.07
2019-02-28T16:29:06.303Z,43.40
2019-02-28T16:31:33.755Z,42.07
2019-02-28T16:34:08.247Z,28.00
2019-02-28T16:36:31.452Z,39.87
2019-02-28T16:39:00.373Z,37.23
2019-02-28T16:41:28.627Z,44.50
2019-02-28T16:43:57.173Z,44.90
2019-02-28T16:46:25.557Z,45.83
2019-02-28T16:48:54.345Z,51.47
2019-02-28T16:51:22.996Z,51.83
2019-02-28T16:53:50.130Z,48.47
2019-02-28T16:56:17.860Z,45.90
2019-02-28T16:58:46.283Z,46.50
2019-02-28T17:01:13.603Z,35.20
2019-02-28T17:03:41.802Z,38.30
2019-02-28T17:06:09.709Z,43.73
2019-02-28T17:08:48.061Z,37.73
2019-02-28T17:11:18.176Z,37.57
2019-02-28T17:13:54.171Z,36.60
2019-02-28T17:16:37.211Z,39.90
2019-02-28T17:19:04.827Z,32.80
2019-02-28T17:21:32.964Z,33.17
2019-02-28T17:24:00.133Z,31.17
2019-02-28T17:27:06.239Z,28.13
2019-02-28T17:29:37.384Z,25.85
2019-02-28T17:32:05.215Z,34.55
2019-02-28T17:34:32.767Z,50.20
2019-02-28T17:37:00.147Z,20.00
2019-02-28T17:39:28.196Z,26.60
2019-02-28T17:41:55.415Z,23.00
2019-02-28T17:44:38.616Z,16.43
2019-02-28T17:47:10.888Z,16.40
2019-02-28T17:50:16.005Z,20.03
2019-02-28T17:52:49.567Z,7.97
2019-02-28T17:55:56.307Z,6.80
2019-02-28T17:58:44.844Z,7.13
2019-02-28T18:01:37.463Z,6.77
2019-02-28T18:04:33.939Z,6.37
2019-02-28T18:07:39.096Z,4.13
2019-02-28T18:10:47.288Z,11.57
2019-02-28T18:13:24.980Z,5.90
2019-02-28T18:16:25.885Z,6.20
2019-02-28T18:19:33.608Z,6.17
2019-02-28T18:22:31.597Z,4.87
2019-02-28T18:25:23.348Z,12.90
2019-02-28T18:28:50.079Z,5.60
2019-02-28T18:31:19.246Z,5.57
2019-02-28T18:33:52.619Z,3.20
2019-02-28T18:36:23.556Z,3.60
2019-02-28T18:38:50.511Z,3.97
2019-02-28T18:41:17.655Z,5.70
2019-02-28T18:43:44.933Z,3.90
2019-02-28T18:46:12.759Z,2.80
2019-02-28T18:48:41.456Z,9.07
2019-02-28T18:51:10.656Z,6.13
2019-02-28T18:53:39.142Z,4.57
2019-02-28T18:56:06.348Z,18.97
2019-02-28T18:58:34.406Z,22.23
2019-02-28T19:01:01.537Z,7.43
2019-02-28T19:03:28.906Z,8.87
2019-02-28T19:05:56.241Z,10.70
2019-02-28T19:08:24.423Z,11.73
2019-02-28T19:10:52.575Z,7.50
2019-02-28T19:13:20.375Z,8.17
2019-02-28T19:15:48.155Z,8.07
2019-02-28T19:18:16.499Z,7.37
2019-02-28T19:20:44.469Z,6.53
2019-02-28T19:23:11.971Z,6.57
2019-02-28T19:25:38.955Z,10.77
2019-02-28T19:28:06.412Z,9.40
2019-02-28T19:30:33.537Z,8.80
2019-02-28T19:33:00.989Z,8.03
2019-02-28T19:35:28.644Z,11.03
2019-02-28T19:37:56.456Z,12.87
2019-02-28T19:40:23.548Z,11.57
2019-02-28T19:42:51.967Z,9.33
2019-02-28T19:45:21.206Z,6.97
2019-02-28T19:47:49.283Z,7.60
2019-02-28T19:50:16.799Z,14.50
2019-02-28T19:52:45.227Z,14.73
2019-02-28T19:55:12.868Z,13.70
2019-02-28T19:57:41.538Z,11.93
2019-02-28T20:00:11.116Z,11.57
2019-02-28T20:02:38.352Z,12.40
2019-02-28T20:05:06.024Z,13.43
2019-02-28T20:07:33.883Z,11.83
2019-02-28T20:10:00.895Z,10.83
2019-02-28T20:12:28.235Z,10.87
2019-02-28T20:14:56.747Z,8.43
2019-02-28T20:17:24.339Z,8.40
2019-02-28T20:19:51.451Z,8.87
2019-02-28T20:22:18.894Z,12.43
2019-02-28T20:24:46.398Z,13.27
2019-02-28T20:27:15.190Z,8.40
2019-02-28T20:29:42.104Z,13.43
2019-02-28T20:32:10.131Z,15.33
2019-02-28T20:34:37.168Z,16.47
2019-02-28T20:37:05.915Z,17.27
2019-02-28T20:39:33.027Z,11.00
2019-02-28T20:42:00.195Z,15.27
2019-02-28T20:44:29.032Z,11.87
2019-02-28T20:46:56.752Z,12.33
2019-02-28T20:49:24.215Z,17.70
2019-02-28T20:51:55.219Z,12.80
2019-02-28T20:54:21.412Z,15.13
2019-02-28T20:56:49.396Z,17.00
2019-02-28T20:59:16.524Z,16.63
2019-02-28T21:01:43.929Z,15.23
2019-02-28T21:04:11.163Z,12.47
2019-02-28T21:06:39.935Z,14.17
2019-02-28T21:09:07.011Z,18.30
2019-02-28T21:11:35.400Z,20.82
2019-02-28T21:14:04.240Z,16.77
2019-02-28T21:16:31.428Z,20.03
2019-02-28T21:18:59.973Z,18.00
2019-02-28T21:21:27.364Z,16.60
2019-02-28T21:23:55.043Z,15.97
2019-02-28T21:26:22.783Z,19.23
2019-02-28T21:28:50.351Z,16.70
2019-02-28T21:31:19.219Z,14.10
2019-02-28T21:33:46.124Z,17.77
2019-02-28T21:36:13.027Z,24.50
2019-02-28T21:38:40.112Z,15.20
2019-02-28T21:41:09.014Z,19.97
2019-02-28T21:43:36.024Z,12.70
2019-02-28T21:46:03.363Z,15.20
2019-02-28T21:48:30.397Z,17.30
2019-02-28T21:50:58.629Z,19.00
2019-02-28T21:53:26.176Z,16.00
2019-02-28T21:55:54.235Z,15.90
2019-02-28T21:58:21.324Z,16.90
2019-02-28T22:00:48.904Z,19.87
2019-02-28T22:03:17.711Z,17.77
2019-02-28T22:05:46.387Z,15.40
2019-02-28T22:08:13.488Z,20.43
2019-02-28T22:10:40.495Z,17.87
2019-02-28T22:13:07.899Z,14.70
2019-02-28T22:15:35.672Z,18.23
2019-02-28T22:18:03.131Z,17.17
2019-02-28T22:20:30.834Z,19.83
2019-02-28T22:22:57.940Z,15.50
2019-02-28T22:25:25.704Z,20.90
2019-02-28T22:27:52.801Z,15.57
2019-02-28T22:30:57.905Z,21.17
2019-02-28T22:33:36.869Z,13.90
2019-02-28T22:36:04.540Z,18.00
2019-02-28T22:38:31.813Z,17.03
2019-02-28T22:40:58.676Z,14.17
2019-02-28T22:43:25.671Z,17.60
2019-02-28T22:45:52.880Z,17.57
2019-02-28T22:48:21.191Z,20.70
2019-02-28T22:50:48.718Z,17.97
2019-02-28T22:53:15.980Z,20.77
2019-02-28T22:55:43.230Z,16.73
2019-02-28T22:58:10.562Z,17.57
2019-02-28T23:01:03.179Z,15.30
2019-02-28T23:03:31.651Z,14.07
2019-02-28T23:05:59.876Z,13.17
2019-02-28T23:08:28.628Z,15.63
2019-02-28T23:10:56.342Z,16.53
2019-02-28T23:13:23.351Z,17.90
2019-02-28T23:15:51.448Z,16.70
2019-02-28T23:18:18.585Z,15.43
2019-02-28T23:20:45.556Z,15.73
2019-02-28T23:23:13.635Z,19.13
2019-02-28T23:25:40.660Z,22.87
2019-02-28T23:28:15.427Z,22.10
2019-02-28T23:31:13.028Z,30.83
2019-02-28T23:33:40.608Z,20.33
2019-02-28T23:36:08.384Z,17.17
2019-02-28T23:38:35.436Z,19.33
2019-02-28T23:41:05.016Z,13.77
2019-02-28T23:43:32.051Z,21.77
2019-02-28T23:45:59.802Z,14.80
2019-02-28T23:48:27.811Z,20.30
2019-02-28T23:50:55.767Z,20.83
2019-02-28T23:53:23.824Z,13.30
2019-02-28T23:55:51.355Z,18.63
2019-02-28T23:58:18.785Z,25.33
